createdAt,value
2018-07-13T00:00:13.708Z,6.75
2018-07-13T00:02:42.927Z,7.20
2018-07-13T00:05:12.010Z,6.55
2018-07-13T00:07:40.877Z,6.85
2018-07-13T00:10:10.148Z,6.60
2018-07-13T00:12:38.755Z,6.75
2018-07-13T00:15:11.362Z,5.87
2018-07-13T00:17:40.602Z,5.62
2018-07-13T00:20:09.732Z,5.67
2018-07-13T00:22:39.767Z,6.95
2018-07-13T00:25:08.642Z,6.10
2018-07-13T00:27:37.406Z,6.37
2018-07-13T00:30:06.649Z,6.47
2018-07-13T00:32:36.083Z,7.22
2018-07-13T00:35:05.144Z,7.17
2018-07-13T00:37:34.637Z,7.12
2018-07-13T00:40:03.577Z,6.95
2018-07-13T00:42:32.637Z,8.05
2018-07-13T00:45:02.050Z,7.58
2018-07-13T00:47:31.131Z,7.30
2018-07-13T00:49:59.917Z,7.05
2018-07-13T00:52:29.424Z,6.72
2018-07-13T00:54:58.403Z,7.67
2018-07-13T00:57:28.029Z,6.90
2018-07-13T00:59:57.043Z,7.25
2018-07-13T01:02:25.982Z,7.25
2018-07-13T01:04:54.907Z,7.65
2018-07-13T01:07:24.192Z,7.12
2018-07-13T01:09:53.209Z,7.35
2018-07-13T01:12:22.727Z,7.60
2018-07-13T01:14:51.775Z,7.03
2018-07-13T01:17:24.214Z,7.33
2018-07-13T01:19:53.358Z,6.28
2018-07-13T01:22:22.275Z,6.33
2018-07-13T01:24:51.490Z,7.12
2018-07-13T01:27:20.835Z,6.75
2018-07-13T01:29:49.738Z,6.80
2018-07-13T01:32:19.598Z,6.90
2018-07-13T01:34:49.274Z,7.35
2018-07-13T01:37:18.501Z,7.47
2018-07-13T01:39:47.610Z,7.05
2018-07-13T01:42:16.619Z,7.35
2018-07-13T01:44:45.691Z,6.95
2018-07-13T01:47:14.966Z,7.47
2018-07-13T01:49:43.782Z,6.33
2018-07-13T01:52:12.875Z,7.47
2018-07-13T01:54:42.699Z,6.45
2018-07-13T01:57:11.855Z,7.10
2018-07-13T01:59:40.962Z,7.17
2018-07-13T02:02:09.992Z,7.92
2018-07-13T02:04:38.706Z,8.10
2018-07-13T02:07:07.757Z,7.72
2018-07-13T02:09:37.388Z,7.70
2018-07-13T02:12:06.531Z,7.70
2018-07-13T02:14:35.422Z,7.08
2018-07-13T02:17:05.180Z,7.25
2018-07-13T02:19:34.258Z,7.62
2018-07-13T02:22:03.733Z,7.80
2018-07-13T02:24:33.206Z,7.40
2018-07-13T02:27:02.016Z,7.40
2018-07-13T02:29:30.863Z,7.17
2018-07-13T02:32:00.192Z,6.75
2018-07-13T02:34:28.864Z,6.87
2018-07-13T02:36:58.045Z,7.35
2018-07-13T02:39:27.246Z,7.67
2018-07-13T02:41:55.997Z,8.00
2018-07-13T02:44:24.939Z,8.03
2018-07-13T02:46:54.451Z,8.08
2018-07-13T02:49:23.324Z,7.75
2018-07-13T02:51:52.932Z,8.58
2018-07-13T02:54:22.155Z,9.58
2018-07-13T02:56:51.662Z,9.65
2018-07-13T02:59:20.540Z,9.55
2018-07-13T03:01:49.962Z,10.03
2018-07-13T03:04:19.019Z,9.95
2018-07-13T03:06:48.344Z,11.00
2018-07-13T03:09:17.517Z,9.80
2018-07-13T03:11:46.635Z,10.50
2018-07-13T03:14:16.558Z,9.78
2018-07-13T03:16:45.594Z,8.95
2018-07-13T03:19:14.423Z,8.93
2018-07-13T03:21:43.115Z,8.15
2018-07-13T03:24:12.344Z,9.00
2018-07-13T03:26:41.288Z,8.23
2018-07-13T03:29:10.316Z,8.13
2018-07-13T03:31:39.932Z,9.05
2018-07-13T03:34:09.523Z,7.30
2018-07-13T03:36:38.593Z,6.75
2018-07-13T03:39:07.979Z,6.55
2018-07-13T03:41:37.131Z,7.47
2018-07-13T03:44:06.940Z,7.97
2018-07-13T03:46:36.356Z,7.60
2018-07-13T03:49:05.231Z,8.83
2018-07-13T03:51:34.539Z,8.95
2018-07-13T03:54:03.582Z,9.18
2018-07-13T03:56:32.819Z,10.20
2018-07-13T03:59:01.847Z,10.32
2018-07-13T04:01:31.135Z,11.20
2018-07-13T04:03:59.918Z,11.50
2018-07-13T04:06:28.640Z,11.03
2018-07-13T04:08:58.139Z,12.00
2018-07-13T04:11:27.821Z,10.30
2018-07-13T04:13:57.233Z,10.40
2018-07-13T04:16:26.669Z,12.00
2018-07-13T04:18:56.246Z,11.35
2018-07-13T04:21:25.346Z,14.47
2018-07-13T04:23:55.080Z,11.95
2018-07-13T04:26:24.076Z,9.35
2018-07-13T04:28:53.253Z,8.35
2018-07-13T04:31:22.563Z,10.95
2018-07-13T04:33:51.447Z,10.53
2018-07-13T04:36:20.122Z,10.55
2018-07-13T04:38:49.166Z,11.30
2018-07-13T04:41:18.218Z,10.82
2018-07-13T04:43:47.113Z,10.03
2018-07-13T04:46:17.351Z,12.03
2018-07-13T04:48:46.522Z,13.70
2018-07-13T04:51:15.493Z,12.47
2018-07-13T04:53:44.845Z,12.13
2018-07-13T04:56:14.253Z,12.82
2018-07-13T04:58:43.544Z,12.10
2018-07-13T05:01:13.051Z,11.50
2018-07-13T05:03:42.346Z,11.68
2018-07-13T05:06:11.399Z,11.90
2018-07-13T05:08:41.071Z,14.03
2018-07-13T05:11:10.139Z,13.15
2018-07-13T05:13:39.447Z,13.90
2018-07-13T05:16:09.207Z,14.85
2018-07-13T05:18:38.157Z,13.13
2018-07-13T05:21:07.468Z,14.45
2018-07-13T05:23:36.784Z,14.80
2018-07-13T05:26:06.070Z,14.70
2018-07-13T05:28:35.210Z,14.00
2018-07-13T05:31:04.505Z,15.25
2018-07-13T05:33:33.662Z,15.05
2018-07-13T05:36:02.855Z,15.65
2018-07-13T05:38:32.216Z,15.25
2018-07-13T05:41:01.484Z,15.18
2018-07-13T05:43:30.675Z,15.13
2018-07-13T05:46:04.552Z,15.93
2018-07-13T05:48:34.484Z,15.88
2018-07-13T05:51:03.669Z,14.73
2018-07-13T05:53:32.753Z,15.43
2018-07-13T05:56:02.568Z,15.95
2018-07-13T05:58:31.739Z,14.70
2018-07-13T06:01:00.906Z,15.98
2018-07-13T06:03:31.336Z,17.23
2018-07-13T06:06:01.075Z,16.32
2018-07-13T06:08:32.061Z,18.07
2018-07-13T06:11:03.088Z,16.95
2018-07-13T06:13:34.671Z,15.98
2018-07-13T06:16:06.564Z,15.88
2018-07-13T06:18:35.343Z,17.12
2018-07-13T06:21:04.742Z,17.27
2018-07-13T06:23:34.011Z,15.72
2018-07-13T06:26:03.186Z,16.23
2018-07-13T06:28:32.483Z,16.87
2018-07-13T06:31:01.763Z,16.35
2018-07-13T06:33:30.916Z,16.70
2018-07-13T06:35:59.621Z,16.30
2018-07-13T06:38:28.966Z,16.55
2018-07-13T06:40:59.307Z,16.35
2018-07-13T06:43:28.276Z,16.60
2018-07-13T06:45:57.826Z,16.02
2018-07-13T06:48:26.907Z,15.08
2018-07-13T06:50:55.998Z,16.05
2018-07-13T06:53:24.894Z,16.40
2018-07-13T06:55:54.437Z,15.70
2018-07-13T06:58:35.056Z,17.05
2018-07-13T07:01:06.878Z,15.38
2018-07-13T07:03:42.962Z,16.80
2018-07-13T07:06:13.884Z,17.52
2018-07-13T07:08:47.275Z,16.75
2018-07-13T07:11:16.562Z,17.75
2018-07-13T07:13:46.651Z,15.45
2018-07-13T07:16:16.179Z,16.37
2018-07-13T07:18:44.998Z,14.98
2018-07-13T07:21:13.788Z,14.98
2018-07-13T07:23:42.890Z,16.75
2018-07-13T07:26:12.195Z,17.23
2018-07-13T07:28:41.237Z,15.03
2018-07-13T07:31:10.187Z,14.63
2018-07-13T07:33:39.185Z,13.93
2018-07-13T07:36:08.506Z,14.13
2018-07-13T07:38:37.472Z,15.60
2018-07-13T07:41:06.781Z,14.05
2018-07-13T07:43:35.761Z,14.47
2018-07-13T07:46:04.752Z,13.70
2018-07-13T07:48:33.578Z,15.18
2018-07-13T07:51:02.639Z,14.30
2018-07-13T07:53:31.747Z,14.85
2018-07-13T07:56:02.355Z,13.55
2018-07-13T07:58:31.174Z,13.00
2018-07-13T08:01:00.314Z,13.70
2018-07-13T08:03:29.151Z,14.85
2018-07-13T08:05:58.127Z,15.03
2018-07-13T08:08:27.215Z,13.03
2018-07-13T08:10:56.519Z,12.10
2018-07-13T08:13:25.485Z,13.93
2018-07-13T08:15:54.231Z,12.80
2018-07-13T08:18:23.559Z,12.13
2018-07-13T08:20:52.478Z,13.30
2018-07-13T08:23:21.568Z,13.50
2018-07-13T08:25:51.015Z,14.03
2018-07-13T08:28:20.122Z,13.00
2018-07-13T08:30:51.941Z,13.48
2018-07-13T08:33:21.005Z,13.50
2018-07-13T08:35:49.872Z,14.07
2018-07-13T08:38:19.013Z,11.60
2018-07-13T08:40:48.278Z,11.70
2018-07-13T08:43:17.399Z,10.10
2018-07-13T08:45:46.288Z,10.90
2018-07-13T08:48:15.342Z,11.05
2018-07-13T08:50:44.462Z,11.95
2018-07-13T08:53:13.623Z,12.10
2018-07-13T08:55:42.967Z,13.35
2018-07-13T08:58:11.906Z,12.33
2018-07-13T09:00:41.147Z,13.28
2018-07-13T09:03:10.563Z,12.58
2018-07-13T09:05:40.009Z,12.07
2018-07-13T09:08:08.959Z,12.18
2018-07-13T09:10:38.480Z,11.75
2018-07-13T09:13:07.745Z,12.85
2018-07-13T09:15:36.956Z,10.80
2018-07-13T09:18:06.559Z,12.88
2018-07-13T09:20:35.559Z,12.85
2018-07-13T09:23:04.575Z,12.60
2018-07-13T09:25:33.995Z,12.15
2018-07-13T09:28:03.052Z,11.83
2018-07-13T09:30:31.907Z,11.20
2018-07-13T09:33:00.884Z,12.33
2018-07-13T09:35:29.831Z,12.30
2018-07-13T09:37:59.379Z,12.73
2018-07-13T09:40:28.758Z,11.95
2018-07-13T09:42:58.835Z,11.33
2018-07-13T09:45:27.671Z,10.23
2018-07-13T09:47:56.971Z,10.82
2018-07-13T09:50:25.949Z,11.03
2018-07-13T09:52:55.397Z,10.60
2018-07-13T09:55:24.367Z,11.22
2018-07-13T09:57:53.660Z,8.83
2018-07-13T10:00:22.829Z,9.23
2018-07-13T10:02:52.473Z,8.78
2018-07-13T10:05:21.660Z,7.97
2018-07-13T10:07:50.635Z,8.68
2018-07-13T10:10:19.752Z,8.88
2018-07-13T10:12:48.643Z,7.80
2018-07-13T10:15:17.736Z,6.85
2018-07-13T10:17:46.707Z,8.25
2018-07-13T10:20:15.622Z,9.25
2018-07-13T10:22:45.222Z,9.38
2018-07-13T10:25:14.471Z,9.73
2018-07-13T10:27:43.532Z,10.20
2018-07-13T10:30:13.839Z,9.35
2018-07-13T10:32:44.339Z,9.70
2018-07-13T10:35:13.551Z,9.88
2018-07-13T10:37:42.974Z,9.58
2018-07-13T10:40:11.898Z,8.78
2018-07-13T10:42:40.771Z,8.83
2018-07-13T10:45:09.673Z,9.28
2018-07-13T10:47:40.376Z,9.55
2018-07-13T10:50:09.164Z,8.98
2018-07-13T10:52:38.381Z,9.88
2018-07-13T10:55:09.638Z,9.48
2018-07-13T10:57:38.602Z,8.75
2018-07-13T11:00:08.206Z,7.58
2018-07-13T11:02:37.609Z,8.03
2018-07-13T11:05:06.415Z,7.70
2018-07-13T11:07:35.683Z,7.12
2018-07-13T11:10:05.617Z,8.13
2018-07-13T11:12:34.731Z,8.20
2018-07-13T11:15:03.650Z,7.72
2018-07-13T11:17:33.418Z,8.23
2018-07-13T11:20:02.423Z,7.40
2018-07-13T11:22:31.066Z,8.25
2018-07-13T11:25:00.247Z,6.85
2018-07-13T11:27:29.028Z,7.33
2018-07-13T11:29:57.991Z,6.58
2018-07-13T11:32:27.253Z,6.78
2018-07-13T11:34:56.254Z,7.70
2018-07-13T11:37:25.045Z,5.95
2018-07-13T11:39:54.367Z,4.30
2018-07-13T11:42:23.285Z,5.10
2018-07-13T11:44:52.558Z,7.60
2018-07-13T11:47:21.571Z,6.42
2018-07-13T11:49:51.028Z,5.55
2018-07-13T11:52:20.004Z,5.30
2018-07-13T11:54:49.390Z,6.58
2018-07-13T11:57:18.532Z,7.08
2018-07-13T11:59:47.970Z,8.35
2018-07-13T12:02:17.316Z,9.68
2018-07-13T12:04:46.957Z,8.78
2018-07-13T12:07:15.764Z,11.60
2018-07-13T12:09:44.791Z,10.10
2018-07-13T12:12:14.786Z,8.88
2018-07-13T12:14:44.131Z,9.75
2018-07-13T12:17:13.753Z,11.60
2018-07-13T12:19:42.567Z,13.45
2018-07-13T12:22:11.867Z,11.33
2018-07-13T12:24:41.285Z,13.10
2018-07-13T12:27:10.427Z,11.57
2018-07-13T12:29:39.236Z,12.10
2018-07-13T12:32:08.703Z,12.13
2018-07-13T12:34:38.670Z,13.48
2018-07-13T12:37:08.368Z,10.93
2018-07-13T12:39:37.545Z,11.55
2018-07-13T12:42:06.531Z,12.35
2018-07-13T12:44:35.570Z,12.82
2018-07-13T12:47:04.887Z,12.35
2018-07-13T12:49:33.542Z,12.10
2018-07-13T12:52:02.435Z,12.58
2018-07-13T12:54:31.704Z,13.50
2018-07-13T12:57:00.633Z,12.88
2018-07-13T12:59:30.925Z,12.53
2018-07-13T13:01:59.960Z,12.78
2018-07-13T13:04:28.707Z,12.43
2018-07-13T13:06:57.824Z,12.03
2018-07-13T13:09:27.045Z,11.85
2018-07-13T13:11:55.934Z,11.85
2018-07-13T13:14:25.129Z,12.10
2018-07-13T13:16:54.429Z,11.43
2018-07-13T13:19:23.616Z,11.50
2018-07-13T13:21:52.912Z,12.20
2018-07-13T13:24:21.844Z,12.07
2018-07-13T13:26:50.601Z,10.95
2018-07-13T13:29:22.930Z,11.57
2018-07-13T13:31:57.575Z,11.68
2018-07-13T13:34:26.691Z,12.28
2018-07-13T13:36:55.711Z,11.53
2018-07-13T13:39:24.528Z,11.10
2018-07-13T13:41:53.847Z,9.75
2018-07-13T13:44:22.871Z,10.88
2018-07-13T13:46:51.910Z,10.48
2018-07-13T13:49:21.628Z,9.65
2018-07-13T13:51:50.719Z,10.18
2018-07-13T13:54:19.718Z,11.53
2018-07-13T13:56:49.958Z,10.05
2018-07-13T13:59:19.211Z,9.18
2018-07-13T14:01:48.111Z,11.12
2018-07-13T14:04:17.555Z,14.90
2018-07-13T14:06:46.655Z,16.48
2018-07-13T14:09:15.870Z,17.57
2018-07-13T14:11:45.698Z,17.17
2018-07-13T14:14:14.726Z,15.80
2018-07-13T14:16:43.835Z,17.02
2018-07-13T14:19:13.251Z,17.65
2018-07-13T14:21:42.347Z,14.70
2018-07-13T14:24:11.341Z,16.35
2018-07-13T14:26:40.397Z,17.65
2018-07-13T14:29:09.263Z,17.67
2018-07-13T14:31:38.109Z,16.52
2018-07-13T14:34:08.026Z,17.25
2018-07-13T14:36:36.998Z,18.27
2018-07-13T14:39:08.363Z,14.98
2018-07-13T14:41:37.818Z,16.73
2018-07-13T14:44:06.978Z,16.62
2018-07-13T14:46:36.095Z,17.23
2018-07-13T14:49:05.075Z,15.43
2018-07-13T14:51:34.455Z,16.67
2018-07-13T14:54:03.880Z,15.40
2018-07-13T14:56:32.976Z,13.88
2018-07-13T14:59:01.993Z,14.58
2018-07-13T15:01:31.480Z,17.25
2018-07-13T15:04:00.594Z,13.93
2018-07-13T15:06:29.772Z,13.83
2018-07-13T15:08:59.443Z,14.63
2018-07-13T15:11:28.472Z,14.58
2018-07-13T15:13:57.467Z,13.45
2018-07-13T15:16:26.703Z,12.10
2018-07-13T15:18:55.874Z,13.60
2018-07-13T15:21:24.971Z,11.75
2018-07-13T15:23:54.903Z,11.43
2018-07-13T15:26:23.944Z,13.05
2018-07-13T15:28:52.883Z,11.45
2018-07-13T15:31:22.004Z,13.10
2018-07-13T15:33:50.971Z,11.93
2018-07-13T15:36:20.066Z,12.07
2018-07-13T15:38:49.456Z,12.45
2018-07-13T15:41:18.359Z,12.90
2018-07-13T15:43:47.472Z,11.00
2018-07-13T15:46:16.589Z,12.53
2018-07-13T15:48:45.635Z,13.43
2018-07-13T15:51:14.469Z,11.70
2018-07-13T15:53:44.318Z,11.60
2018-07-13T15:56:14.367Z,13.75
2018-07-13T15:58:43.555Z,13.90
2018-07-13T16:01:12.461Z,11.40
2018-07-13T16:03:41.487Z,11.60
2018-07-13T16:06:10.749Z,12.65
2018-07-13T16:08:39.896Z,13.28
2018-07-13T16:11:08.956Z,14.68
2018-07-13T16:13:37.971Z,14.47
2018-07-13T16:16:07.150Z,12.05
2018-07-13T16:18:36.414Z,12.33
2018-07-13T16:21:05.345Z,12.18
2018-07-13T16:23:34.416Z,11.85
2018-07-13T16:26:03.334Z,11.83
2018-07-13T16:28:32.691Z,11.73
2018-07-13T16:31:01.747Z,11.88
2018-07-13T16:33:31.512Z,12.40
2018-07-13T16:36:00.830Z,9.35
2018-07-13T16:38:30.555Z,8.90
2018-07-13T16:40:59.795Z,12.35
2018-07-13T16:43:30.703Z,12.55
2018-07-13T16:46:00.792Z,11.73
2018-07-13T16:48:29.614Z,12.98
2018-07-13T16:50:58.633Z,12.13
2018-07-13T16:53:27.808Z,12.85
2018-07-13T16:55:56.701Z,12.65
2018-07-13T16:58:25.901Z,13.35
2018-07-13T17:00:54.831Z,13.15
2018-07-13T17:03:24.042Z,12.33
2018-07-13T17:05:53.904Z,13.32
2018-07-13T17:08:24.173Z,13.10
2018-07-13T17:10:53.208Z,11.70
2018-07-13T17:13:22.187Z,12.88
2018-07-13T17:15:51.014Z,13.95
2018-07-13T17:18:20.299Z,13.62
2018-07-13T17:20:49.264Z,13.95
2018-07-13T17:23:18.470Z,12.90
2018-07-13T17:25:47.163Z,14.25
2018-07-13T17:28:16.267Z,13.35
2018-07-13T17:30:45.198Z,11.43
2018-07-13T17:33:14.187Z,14.00
2018-07-13T17:35:42.994Z,14.20
2018-07-13T17:38:12.011Z,13.90
2018-07-13T17:40:42.083Z,15.13
2018-07-13T17:43:11.254Z,16.40
2018-07-13T17:45:40.159Z,16.93
2018-07-13T17:48:09.206Z,15.40
2018-07-13T17:50:38.123Z,15.43
2018-07-13T17:53:07.087Z,15.63
2018-07-13T17:55:36.247Z,16.05
2018-07-13T17:58:05.247Z,15.35
2018-07-13T18:00:34.900Z,15.65
2018-07-13T18:03:03.962Z,14.47
2018-07-13T18:05:33.023Z,15.53
2018-07-13T18:08:02.139Z,18.57
2018-07-13T18:10:31.631Z,16.80
2018-07-13T18:13:00.815Z,17.50
2018-07-13T18:15:30.040Z,17.62
2018-07-13T18:17:59.124Z,16.97
2018-07-13T18:20:28.292Z,17.37
2018-07-13T18:22:57.670Z,17.70
2018-07-13T18:25:26.805Z,17.48
2018-07-13T18:27:55.716Z,17.95
2018-07-13T18:30:24.888Z,17.25
2018-07-13T18:32:53.819Z,18.85
2018-07-13T18:35:22.623Z,17.62
2018-07-13T18:37:51.806Z,18.12
2018-07-13T18:40:20.688Z,19.50
2018-07-13T18:42:49.669Z,19.42
2018-07-13T18:45:18.898Z,23.25
2018-07-13T18:47:47.593Z,20.37
2018-07-13T18:50:16.680Z,20.92
2018-07-13T18:52:45.599Z,22.17
2018-07-13T18:55:14.451Z,20.55
2018-07-13T18:57:43.331Z,20.43
2018-07-13T19:00:12.589Z,20.12
2018-07-13T19:02:41.643Z,18.25
2018-07-13T19:05:10.432Z,19.05
2018-07-13T19:07:39.753Z,19.07
2018-07-13T19:10:08.645Z,19.55
2018-07-13T19:12:37.436Z,18.65
2018-07-13T19:15:06.799Z,18.98
2018-07-13T19:17:35.721Z,20.20
2018-07-13T19:20:04.593Z,20.68
2018-07-13T19:22:33.600Z,19.85
2018-07-13T19:25:02.263Z,19.42
2018-07-13T19:27:31.343Z,19.32
2018-07-13T19:30:00.761Z,19.80
2018-07-13T19:32:29.585Z,21.62
2018-07-13T19:34:58.447Z,19.75
2018-07-13T19:37:28.530Z,20.10
2018-07-13T19:39:57.582Z,20.68
2018-07-13T19:42:27.284Z,21.87
2018-07-13T19:44:56.603Z,21.50
2018-07-13T19:47:26.603Z,21.20
2018-07-13T19:49:55.924Z,20.30
2018-07-13T19:52:25.735Z,21.30
2018-07-13T19:54:55.158Z,21.40
2018-07-13T19:57:24.371Z,22.65
2018-07-13T19:59:53.649Z,22.75
2018-07-13T20:02:22.603Z,23.75
2018-07-13T20:04:51.617Z,23.87
2018-07-13T20:07:20.629Z,23.18
2018-07-13T20:09:49.702Z,21.70
2018-07-13T20:12:19.139Z,22.40
2018-07-13T20:14:48.142Z,22.85
2018-07-13T20:17:17.030Z,21.45
2018-07-13T20:19:45.883Z,22.25
2018-07-13T20:22:15.192Z,24.45
2018-07-13T20:24:44.091Z,21.48
2018-07-13T20:27:12.795Z,21.60
2018-07-13T20:29:41.918Z,20.32
2018-07-13T20:32:10.877Z,19.17
2018-07-13T20:34:40.453Z,16.12
2018-07-13T20:37:10.096Z,16.65
2018-07-13T20:39:39.354Z,15.85
2018-07-13T20:42:08.571Z,14.53
2018-07-13T20:44:37.398Z,15.23
2018-07-13T20:47:06.852Z,15.05
2018-07-13T20:49:35.806Z,13.85
2018-07-13T20:52:06.106Z,13.95
2018-07-13T20:54:35.202Z,12.80
2018-07-13T20:57:03.852Z,14.60
2018-07-13T20:59:32.904Z,13.08
2018-07-13T21:02:01.791Z,13.68
2018-07-13T21:04:30.862Z,14.05
2018-07-13T21:07:00.038Z,14.45
2018-07-13T21:09:28.914Z,12.58
2018-07-13T21:11:57.743Z,12.63
2018-07-13T21:14:26.574Z,11.48
2018-07-13T21:16:55.635Z,11.97
2018-07-13T21:19:25.230Z,11.90
2018-07-13T21:21:54.363Z,11.75
2018-07-13T21:24:23.648Z,11.83
2018-07-13T21:26:52.587Z,11.35
2018-07-13T21:29:21.554Z,12.23
2018-07-13T21:31:50.735Z,11.05
2018-07-13T21:34:19.859Z,11.93
2018-07-13T21:36:48.731Z,11.12
2018-07-13T21:39:17.722Z,11.70
2018-07-13T21:41:46.465Z,11.90
2018-07-13T21:44:15.841Z,11.63
2018-07-13T21:46:44.882Z,12.58
2018-07-13T21:49:13.879Z,12.68
2018-07-13T21:51:43.208Z,11.73
2018-07-13T21:54:12.082Z,10.90
2018-07-13T21:56:41.591Z,11.10
2018-07-13T21:59:10.723Z,12.05
2018-07-13T22:01:39.760Z,11.95
2018-07-13T22:04:08.545Z,11.78
2018-07-13T22:06:37.754Z,11.65
2018-07-13T22:09:07.047Z,12.05
2018-07-13T22:11:36.075Z,12.68
2018-07-13T22:14:05.173Z,12.30
2018-07-13T22:16:34.778Z,12.95
2018-07-13T22:19:04.091Z,12.07
2018-07-13T22:21:33.627Z,11.97
2018-07-13T22:24:02.940Z,13.43
2018-07-13T22:26:31.826Z,11.50
2018-07-13T22:29:00.699Z,11.38
2018-07-13T22:31:29.995Z,11.12
2018-07-13T22:33:58.867Z,10.35
2018-07-13T22:36:27.800Z,10.05
2018-07-13T22:38:56.849Z,10.03
2018-07-13T22:41:26.262Z,9.53
2018-07-13T22:43:55.645Z,8.33
2018-07-13T22:46:25.266Z,8.55
2018-07-13T22:48:54.334Z,8.35
2018-07-13T22:51:23.595Z,9.35
2018-07-13T22:53:53.311Z,9.83
2018-07-13T22:56:22.708Z,8.03
2018-07-13T22:58:51.716Z,8.58
2018-07-13T23:01:21.263Z,7.67
2018-07-13T23:03:50.019Z,7.30
2018-07-13T23:06:19.188Z,7.00
2018-07-13T23:08:48.152Z,6.83
2018-07-13T23:11:17.160Z,6.17
2018-07-13T23:13:46.217Z,6.72
2018-07-13T23:16:15.235Z,6.45
2018-07-13T23:18:43.987Z,5.95
2018-07-13T23:21:13.465Z,5.42
2018-07-13T23:23:42.476Z,4.80
2018-07-13T23:26:11.313Z,5.10
2018-07-13T23:28:41.788Z,5.28
2018-07-13T23:31:10.871Z,4.67
2018-07-13T23:33:40.143Z,5.03
2018-07-13T23:36:09.276Z,3.70
2018-07-13T23:38:38.378Z,5.90
2018-07-13T23:41:07.565Z,4.72
2018-07-13T23:43:36.766Z,3.67
2018-07-13T23:46:05.962Z,2.92
2018-07-13T23:48:35.150Z,3.02
2018-07-13T23:51:05.568Z,2.80
2018-07-13T23:53:34.577Z,2.30
2018-07-13T23:56:04.388Z,3.02
2018-07-13T23:58:33.699Z,3.55
